Time;durP1;ratioP1;P1;durP2;ratioP2;P2;SDS_P1;SDS_P2;PMS_P1;PMS_P2;Temp;Humidity;BMP_temperature;BMP_pressure;BME280_temperature;BME280_humidity;BME280_pressure;Samples;Min_cycle;Max_cycle;Signal;HPM_P1;HPM_P2
2020/12/24 00:00:39;;;;;;;22.90;14.60;;;;;;;0.86;100.00;99921.58;1809432;78;21787;-73
2020/12/24 00:03:06;;;;;;;23.50;15.18;;;;;;;0.82;100.00;99914.18;1798901;79;21551;-75
2020/12/24 00:05:34;;;;;;;18.53;12.90;;;;;;;0.84;100.00;99909.04;1770786;79;21062;-75
2020/12/24 00:08:02;;;;;;;21.60;13.80;;;;;;;0.88;100.00;99912.96;1799687;78;21146;-77
2020/12/24 00:10:31;;;;;;;29.40;15.23;;;;;;;0.84;100.00;99906.39;1765744;81;21180;-72
2020/12/24 00:12:59;;;;;;;24.77;12.77;;;;;;;0.82;100.00;99903.59;1798270;79;21784;-77
2020/12/24 00:15:26;;;;;;;16.97;11.13;;;;;;;0.87;100.00;99902.55;1767627;79;21144;-76
2020/12/24 00:17:54;;;;;;;23.37;15.03;;;;;;;0.87;100.00;99897.25;1806669;78;21149;-77
2020/12/24 00:20:22;;;;;;;17.67;12.58;;;;;;;0.92;100.00;99902.00;1825625;78;21169;-76
2020/12/24 00:22:50;;;;;;;23.60;15.97;;;;;;;0.91;100.00;99905.17;1812307;78;21133;-73
2020/12/24 00:25:18;;;;;;;21.03;12.83;;;;;;;0.93;100.00;99908.94;1794651;79;22207;-71
2020/12/24 00:27:46;;;;;;;29.20;18.98;;;;;;;0.97;100.00;99909.72;1786989;79;21175;-73
2020/12/24 00:30:13;;;;;;;33.00;17.97;;;;;;;0.94;100.00;99900.00;1765295;79;21566;-74
2020/12/24 00:32:41;;;;;;;20.60;13.73;;;;;;;0.92;100.00;99896.70;1799404;78;21583;-77
2020/12/24 00:35:08;;;;;;;25.70;15.27;;;;;;;0.90;100.00;99894.76;1798983;78;21152;-76
2020/12/24 00:37:36;;;;;;;21.43;12.90;;;;;;;0.90;100.00;99889.46;1792684;79;21221;-76
2020/12/24 00:40:04;;;;;;;24.40;15.43;;;;;;;0.93;100.00;99885.94;1810032;78;21038;-75
2020/12/24 00:42:32;;;;;;;21.80;12.93;;;;;;;0.95;100.00;99877.33;1820142;78;21146;-76
2020/12/24 00:44:59;;;;;;;18.80;12.13;;;;;;;0.96;100.00;99868.35;1811186;78;21439;-77
2020/12/24 00:47:27;;;;;;;24.03;13.47;;;;;;;0.96;100.00;99873.65;1799980;78;21015;-75
2020/12/24 00:49:54;;;;;;;24.57;15.33;;;;;;;0.92;100.00;99871.55;1800692;79;22330;-74
2020/12/24 00:52:22;;;;;;;21.07;13.58;;;;;;;0.90;100.00;99875.72;1799088;78;21216;-75
2020/12/24 00:54:49;;;;;;;25.80;15.77;;;;;;;0.91;100.00;99885.32;1795464;80;21141;-76
2020/12/24 00:57:17;;;;;;;19.70;13.40;;;;;;;0.94;100.00;99892.89;1795930;78;21014;-76
2020/12/24 00:59:46;;;;;;;21.17;13.03;;;;;;;0.98;100.00;99896.80;1795312;80;21169;-78
2020/12/24 01:02:14;;;;;;;25.63;14.80;;;;;;;1.01;100.00;99896.43;1795261;80;22209;-77
2020/12/24 01:04:41;;;;;;;26.77;17.20;;;;;;;1.05;100.00;99897.73;1795243;80;21176;-77
2020/12/24 01:07:09;;;;;;;21.80;13.20;;;;;;;1.11;100.00;99897.47;1795407;78;21165;-80
2020/12/24 01:09:37;;;;;;;22.13;12.30;;;;;;;1.12;100.00;99903.92;1777511;80;21039;-76
2020/12/24 01:12:04;;;;;;;20.72;13.08;;;;;;;1.08;100.00;99902.65;1795300;80;21574;-78
2020/12/24 01:14:32;;;;;;;26.83;15.43;;;;;;;1.06;100.00;99904.64;1795304;80;23259;-76
2020/12/24 01:17:00;;;;;;;20.43;13.15;;;;;;;1.03;100.00;99894.43;1797581;78;21152;-75
2020/12/24 01:19:27;;;;;;;22.70;15.50;;;;;;;1.03;100.00;99890.95;1815985;78;21157;-76
2020/12/24 01:21:55;;;;;;;18.90;11.33;;;;;;;0.97;100.00;99892.51;1795266;78;21781;-76
2020/12/24 01:24:23;;;;;;;24.63;15.00;;;;;;;0.94;100.00;99904.80;1762236;81;21143;-76
2020/12/24 01:26:51;;;;;;;23.35;12.58;;;;;;;0.93;100.00;99904.47;1795765;78;21423;-76
2020/12/24 01:29:18;;;;;;;25.70;16.30;;;;;;;0.92;100.00;99904.64;1791511;80;21172;-76
2020/12/24 01:31:49;;;;;;;22.43;12.20;;;;;;;0.93;100.00;99912.91;1795700;80;21144;-74
2020/12/24 01:34:19;;;;;;;24.03;15.53;;;;;;;0.99;100.00;99912.20;1795644;80;21097;-76
2020/12/24 01:36:47;;;;;;;20.47;13.83;;;;;;;0.98;100.00;99907.40;1796562;78;21125;-75
2020/12/24 01:39:16;;;;;;;21.35;11.68;;;;;;;0.97;100.00;99907.07;1795416;78;21637;-76
2020/12/24 01:41:46;;;;;;;21.23;13.10;;;;;;;0.95;100.00;99905.62;1795670;78;21142;-74
2020/12/24 01:44:14;;;;;;;23.37;11.73;;;;;;;0.90;100.00;99898.73;1760176;80;21140;-74
2020/12/24 01:46:43;;;;;;;22.40;13.73;;;;;;;0.90;100.00;99903.52;1766778;80;21641;-76
2020/12/24 01:49:12;;;;;;;14.47;10.13;;;;;;;0.90;100.00;99901.37;1794252;80;21172;-79
2020/12/24 01:51:39;;;;;;;16.83;11.87;;;;;;;0.94;100.00;99894.70;1815211;78;21337;-75
2020/12/24 01:54:07;;;;;;;16.23;11.57;;;;;;;0.96;100.00;99896.16;1821054;78;21207;-79
2020/12/24 01:56:35;;;;;;;18.67;11.53;;;;;;;0.96;100.00;99902.77;1809738;78;21015;-75
2020/12/24 01:59:03;;;;;;;17.13;12.33;;;;;;;0.95;100.00;99894.53;1777453;80;21546;-75
2020/12/24 02:01:30;;;;;;;26.70;14.15;;;;;;;0.94;100.00;99896.86;1807169;78;21157;-74
2020/12/24 02:03:58;;;;;;;22.87;13.43;;;;;;;0.96;100.00;99886.89;1803991;78;22252;-78
2020/12/24 02:06:25;;;;;;;19.70;12.70;;;;;;;0.94;100.00;99894.70;1757938;81;21164;-77
2020/12/24 02:08:55;;;;;;;27.73;13.03;;;;;;;0.90;100.00;99899.55;1780346;80;21145;-75
2020/12/24 02:11:25;;;;;;;20.10;12.03;;;;;;;0.87;100.00;99893.28;1790329;79;21095;-72
2020/12/24 02:13:52;;;;;;;26.30;16.27;;;;;;;0.91;100.00;99884.49;1821914;78;21133;-76
2020/12/24 02:16:21;;;;;;;20.40;12.03;;;;;;;0.92;100.00;99882.14;1822465;78;21125;-76
2020/12/24 02:18:48;;;;;;;23.42;13.98;;;;;;;0.94;100.00;99884.94;1821977;78;22373;-71
2020/12/24 02:21:16;;;;;;;22.73;12.13;;;;;;;0.96;100.00;99885.56;1813037;78;21626;-72
2020/12/24 02:23:44;;;;;;;25.77;14.80;;;;;;;1.00;100.00;99878.09;1797295;78;21525;-69
2020/12/24 02:26:12;;;;;;;27.23;15.37;;;;;;;0.93;100.00;99883.79;1797984;79;21162;-68
2020/12/24 02:28:40;;;;;;;23.43;13.63;;;;;;;0.93;100.00;99881.97;1723827;80;21207;-69
2020/12/24 02:31:09;;;;;;;25.40;13.50;;;;;;;0.91;100.00;99880.02;1803945;79;21144;-69
2020/12/24 02:33:37;;;;;;;25.13;14.40;;;;;;;0.92;100.00;99879.49;1789382;80;21133;-71
2020/12/24 02:36:05;;;;;;;27.57;14.17;;;;;;;0.97;100.00;99884.56;1771632;80;21113;-69
2020/12/24 02:38:34;;;;;;;32.90;17.73;;;;;;;1.00;100.00;99887.36;1766729;80;21149;-68
2020/12/24 02:41:01;;;;;;;26.03;15.03;;;;;;;0.99;100.00;99889.19;1779644;80;21337;-69
2020/12/24 02:43:30;;;;;;;21.90;11.60;;;;;;;1.00;100.00;99880.24;1816340;78;21141;-67
2020/12/24 02:45:57;;;;;;;22.50;13.62;;;;;;;0.97;100.00;99882.41;1804965;79;21606;-71
2020/12/24 02:48:25;;;;;;;25.93;14.30;;;;;;;0.98;100.00;99882.24;1789108;80;21141;-72
2020/12/24 02:50:53;;;;;;;27.87;18.53;;;;;;;1.02;100.00;99883.52;1757979;81;21578;-73
2020/12/24 02:53:21;;;;;;;24.87;13.60;;;;;;;1.05;100.00;99881.02;1789171;78;21518;-71
2020/12/24 02:55:49;;;;;;;27.40;17.12;;;;;;;1.07;100.00;99888.26;1789338;80;21176;-73
2020/12/24 02:58:17;;;;;;;28.37;17.10;;;;;;;1.04;100.00;99892.11;1756598;81;21145;-72
2020/12/24 03:00:44;;;;;;;26.23;14.00;;;;;;;0.99;100.00;99895.81;1785801;80;21153;-71
2020/12/24 03:03:14;;;;;;;23.53;15.40;;;;;;;0.98;100.00;99893.33;1788750;79;21153;-71
2020/12/24 03:05:41;;;;;;;23.73;11.38;;;;;;;0.97;100.00;99887.21;1805652;78;21264;-72
2020/12/24 03:08:09;;;;;;;19.07;12.78;;;;;;;0.97;100.00;99889.03;1821014;78;22208;-72
2020/12/24 03:10:37;;;;;;;27.80;15.73;;;;;;;0.98;100.00;99892.01;1788319;80;21185;-71
2020/12/24 03:13:05;;;;;;;30.25;16.40;;;;;;;0.99;100.00;99891.83;1789225;80;21102;-73
2020/12/24 03:15:34;;;;;;;30.43;15.05;;;;;;;0.97;100.00;99895.66;1756597;81;21641;-71
2020/12/24 03:18:01;;;;;;;26.60;14.03;;;;;;;0.95;100.00;99887.09;1789441;80;21333;-73
2020/12/24 03:20:30;;;;;;;24.20;15.37;;;;;;;0.97;100.00;99887.71;1790646;78;20999;-72
2020/12/24 03:22:58;;;;;;;17.67;10.50;;;;;;;0.99;100.00;99883.89;1759707;81;21023;-71
2020/12/24 03:25:26;;;;;;;24.12;17.62;;;;;;;1.04;100.00;99879.37;1793235;78;21140;-73
2020/12/24 03:27:54;;;;;;;27.67;16.97;;;;;;;1.03;100.00;99878.55;1751339;80;21052;-72
2020/12/24 03:30:22;;;;;;;24.77;12.90;;;;;;;0.99;100.00;99868.00;1758601;81;21433;-72
2020/12/24 03:32:49;;;;;;;19.92;13.03;;;;;;;0.97;100.00;99862.55;1791428;80;21197;-75
2020/12/24 03:35:17;;;;;;;19.00;12.87;;;;;;;0.93;100.00;99852.02;1792472;80;21471;-72
2020/12/24 03:37:45;;;;;;;22.77;12.33;;;;;;;0.93;100.00;99851.52;1789996;80;21236;-71
2020/12/24 03:40:13;;;;;;;22.17;12.33;;;;;;;0.96;100.00;99855.11;1790436;78;22167;-71
2020/12/24 03:42:40;;;;;;;22.95;12.37;;;;;;;0.94;100.00;99850.52;1780785;80;21340;-72
2020/12/24 03:45:08;;;;;;;21.93;13.00;;;;;;;0.94;100.00;99854.48;1824192;78;20967;-72
2020/12/24 03:47:36;;;;;;;20.60;13.17;;;;;;;0.95;100.00;99848.70;1799475;78;21006;-74
2020/12/24 03:50:04;;;;;;;19.57;13.23;;;;;;;0.96;100.00;99852.46;1822500;78;21117;-72
2020/12/24 03:52:33;;;;;;;18.77;10.27;;;;;;;1.03;100.00;99852.56;1819852;79;21146;-72
2020/12/24 03:55:00;;;;;;;19.77;12.13;;;;;;;1.05;100.00;99848.73;1819633;78;21360;-72
2020/12/24 03:57:29;;;;;;;20.13;12.20;;;;;;;1.05;100.00;99850.56;1820026;78;21018;-73
2020/12/24 03:59:56;;;;;;;22.03;13.17;;;;;;;1.05;100.00;99850.06;1818553;78;20927;-72
2020/12/24 04:02:24;;;;;;;24.57;14.00;;;;;;;1.05;100.00;99850.06;1796018;78;21106;-71
2020/12/24 04:04:52;;;;;;;18.23;10.97;;;;;;;1.04;100.00;99840.97;1795403;80;21191;-71
2020/12/24 04:07:21;;;;;;;19.97;11.13;;;;;;;1.00;100.00;99835.23;1803819;78;22259;-70
2020/12/24 04:09:48;;;;;;;18.50;11.93;;;;;;;0.94;100.00;99829.34;1827809;78;21125;-72
2020/12/24 04:12:16;;;;;;;22.83;12.47;;;;;;;0.93;100.00;99826.86;1828033;78;21599;-72
2020/12/24 04:14:44;;;;;;;22.25;13.15;;;;;;;0.96;100.00;99825.19;1780524;78;21042;-71
2020/12/24 04:17:12;;;;;;;23.77;15.72;;;;;;;0.92;100.00;99830.02;1792705;79;21122;-73
2020/12/24 04:19:39;;;;;;;18.37;11.37;;;;;;;0.90;100.00;99831.22;1795431;80;21728;-73
2020/12/24 04:22:07;;;;;;;24.87;14.60;;;;;;;0.94;100.00;99828.52;1807978;78;21595;-68
2020/12/24 04:24:35;;;;;;;23.02;13.48;;;;;;;0.93;100.00;99826.86;1829242;78;20919;-70
2020/12/24 04:27:02;;;;;;;21.17;11.27;;;;;;;0.91;100.00;99820.45;1828410;78;21137;-71
2020/12/24 04:29:30;;;;;;;18.20;12.00;;;;;;;0.91;100.00;99819.13;1820491;78;21113;-72
2020/12/24 04:31:58;;;;;;;21.45;13.62;;;;;;;0.90;100.00;99817.48;1787610;80;21450;-73
2020/12/24 04:34:26;;;;;;;26.77;16.00;;;;;;;0.88;100.00;99820.80;1787419;80;21169;-72
2020/12/24 04:36:53;;;;;;;25.15;15.50;;;;;;;0.91;100.00;99819.63;1789864;78;20988;-71
2020/12/24 04:39:21;;;;;;;24.60;14.13;;;;;;;0.88;100.00;99820.80;1789916;80;21094;-71
2020/12/24 04:41:48;;;;;;;25.10;14.67;;;;;;;0.87;100.00;99823.95;1790302;80;21213;-72
2020/12/24 04:44:16;;;;;;;22.35;12.65;;;;;;;0.86;100.00;99818.33;1789768;78;21332;-71
2020/12/24 04:46:44;;;;;;;26.23;16.20;;;;;;;0.85;100.00;99822.50;1787469;80;21006;-76
2020/12/24 04:49:11;;;;;;;25.72;16.23;;;;;;;0.90;100.00;99817.48;1814974;79;21091;-71
2020/12/24 04:51:39;;;;;;;28.73;17.70;;;;;;;0.90;100.00;99816.16;1795309;80;21601;-72
2020/12/24 04:54:06;;;;;;;17.57;11.40;;;;;;;0.90;100.00;99811.36;1814888;78;21184;-72
2020/12/24 04:56:34;;;;;;;26.67;14.90;;;;;;;0.91;100.00;99813.01;1820788;78;21807;-74
2020/12/24 04:59:02;;;;;;;28.92;17.65;;;;;;;0.90;100.00;99816.66;1827519;78;21573;-76
2020/12/24 05:01:31;;;;;;;26.77;17.23;;;;;;;0.86;100.00;99818.33;1807348;78;21011;-74
2020/12/24 05:03:59;;;;;;;22.17;14.23;;;;;;;0.91;100.00;99820.45;1827714;78;21456;-75
2020/12/24 05:06:27;;;;;;;26.83;18.40;;;;;;;0.93;100.00;99817.09;1827780;78;21145;-74
2020/12/24 05:09:00;;;;;;;19.03;12.63;;;;;;;0.93;100.00;99824.22;1828090;78;21194;-74
2020/12/24 05:11:31;;;;;;;24.20;14.77;;;;;;;0.93;100.00;99830.83;1827866;78;21027;-75
2020/12/24 05:14:20;;;;;;;22.27;14.50;;;;;;;0.92;100.00;99821.24;1827814;78;21141;-74
2020/12/24 05:17:08;;;;;;;21.53;13.03;;;;;;;0.92;100.00;99820.74;1826789;78;21140;-73
2020/12/24 05:19:47;;;;;;;21.57;14.57;;;;;;;0.92;100.00;99821.24;1824759;78;21626;-74
2020/12/24 05:22:23;;;;;;;18.30;10.82;;;;;;;0.99;100.00;99825.63;1794776;78;21382;-75
2020/12/24 05:24:51;;;;;;;18.30;10.73;;;;;;;1.05;100.00;99824.91;1795209;80;21142;-74
2020/12/24 05:27:20;;;;;;;24.52;13.95;;;;;;;1.04;100.00;99826.41;1795158;80;21154;-75
2020/12/24 05:29:52;;;;;;;23.73;14.67;;;;;;;1.05;100.00;99822.75;1795132;80;21182;-74
2020/12/24 05:32:29;;;;;;;22.87;16.30;;;;;;;1.02;100.00;99818.63;1795317;80;21552;-75
2020/12/24 05:35:10;;;;;;;21.68;14.23;;;;;;;1.02;100.00;99815.98;1794749;80;22279;-74
2020/12/24 05:37:37;;;;;;;19.85;12.15;;;;;;;0.97;100.00;99816.22;1752992;80;21882;-73
2020/12/24 05:40:28;;;;;;;22.37;11.47;;;;;;;0.96;100.00;99819.89;1750660;81;20990;-74
2020/12/24 05:43:00;;;;;;;20.23;12.37;;;;;;;0.91;100.00;99813.83;1713040;83;21593;-74
2020/12/24 05:45:30;;;;;;;20.87;13.17;;;;;;;0.90;100.00;99816.16;1713029;83;21156;-75
2020/12/24 05:48:12;;;;;;;16.83;12.30;;;;;;;0.92;100.00;99811.48;1713106;82;21195;-73
2020/12/24 05:50:41;;;;;;;20.50;12.17;;;;;;;0.95;100.00;99815.09;1713083;82;21171;-75
2020/12/24 05:53:14;;;;;;;21.27;13.57;;;;;;;0.97;100.00;99816.22;1713265;83;21127;-74
2020/12/24 05:55:43;;;;;;;22.87;14.80;;;;;;;0.97;100.00;99824.16;1710915;82;21195;-73
2020/12/24 05:58:12;;;;;;;19.73;14.27;;;;;;;0.98;100.00;99822.66;1739361;82;21117;-74
2020/12/24 06:00:42;;;;;;;17.65;13.05;;;;;;;0.97;100.00;99832.10;1738603;82;21204;-74
2020/12/24 06:03:18;;;;;;;21.87;11.97;;;;;;;0.95;100.00;99836.28;1735503;82;21057;-74
2020/12/24 06:06:00;;;;;;;22.67;12.80;;;;;;;0.94;100.00;99831.98;1735567;82;21121;-73
2020/12/24 06:08:31;;;;;;;15.53;10.70;;;;;;;0.97;100.00;99833.43;1735606;82;21618;-74
2020/12/24 06:11:09;;;;;;;24.60;13.40;;;;;;;0.99;100.00;99834.08;1710255;83;21153;-75
2020/12/24 06:13:50;;;;;;;23.47;14.27;;;;;;;0.97;100.00;99836.08;1736247;82;21247;-76
2020/12/24 06:16:18;;;;;;;19.50;13.03;;;;;;;0.95;100.00;99829.66;1682162;83;21152;-73
2020/12/24 06:18:47;;;;;;;22.37;14.57;;;;;;;1.00;100.00;99824.64;1737615;82;20952;-74
2020/12/24 06:21:17;;;;;;;24.73;15.67;;;;;;;1.02;100.00;99824.42;1728129;82;21164;-73
2020/12/24 06:23:59;;;;;;;22.03;12.80;;;;;;;1.02;100.00;99815.16;1710208;83;21136;-74
2020/12/24 06:26:33;;;;;;;21.63;15.23;;;;;;;1.01;100.00;99811.69;1710203;83;21473;-73
2020/12/24 06:29:02;;;;;;;18.00;12.67;;;;;;;0.99;100.00;99808.92;1729546;82;20999;-74
2020/12/24 06:31:30;;;;;;;18.77;13.43;;;;;;;1.01;100.00;99802.42;1739653;82;21026;-74
2020/12/24 06:33:57;;;;;;;21.20;12.67;;;;;;;1.00;100.00;99791.53;1745612;81;22306;-73
2020/12/24 06:36:36;;;;;;;16.40;10.40;;;;;;;0.95;100.00;99792.59;1705973;83;21182;-74
2020/12/24 06:39:04;;;;;;;16.23;9.97;;;;;;;0.92;100.00;99794.27;1713093;83;22340;-73
2020/12/24 06:41:38;;;;;;;14.53;9.63;;;;;;;0.93;100.00;99791.12;1712687;83;21163;-75
2020/12/24 06:44:05;;;;;;;17.57;9.10;;;;;;;0.99;100.00;99793.03;1705472;82;21538;-74
2020/12/24 06:46:56;;;;;;;15.58;10.28;;;;;;;1.05;100.00;99801.07;1733915;82;21181;-74
2020/12/24 06:49:31;;;;;;;19.23;13.57;;;;;;;1.04;100.00;99802.07;1752773;81;21125;-72
2020/12/24 06:51:59;;;;;;;18.10;12.30;;;;;;;1.07;100.00;99794.23;1742604;82;23769;-74
2020/12/24 06:54:27;;;;;;;13.67;11.07;;;;;;;1.06;100.00;99797.39;1751643;80;21150;-73
2020/12/24 06:57:25;;;;;;;15.60;10.63;;;;;;;1.11;100.00;99796.83;1750748;81;21169;-73
2020/12/24 07:00:21;;;;;;;16.97;10.60;;;;;;;1.11;100.00;99796.83;1732893;81;21063;-75
2020/12/24 07:02:50;;;;;;;16.23;9.60;;;;;;;1.10;100.00;99788.59;1697285;83;21589;-73
2020/12/24 07:05:42;;;;;;;18.12;13.60;;;;;;;1.00;100.00;99793.36;1740202;82;22280;-73
2020/12/24 07:08:36;;;;;;;24.13;13.03;;;;;;;0.97;100.00;99789.23;1714687;83;21201;-71
2020/12/24 07:11:04;;;;;;;18.60;13.78;;;;;;;0.98;100.00;99794.03;1742750;82;21026;-72
2020/12/24 07:13:38;;;;;;;19.33;13.47;;;;;;;0.99;100.00;99790.39;1717522;82;21580;-74
2020/12/24 07:16:08;;;;;;;26.33;14.30;;;;;;;1.04;100.00;99784.03;1723172;82;22138;-73
2020/12/24 07:18:38;;;;;;;18.03;10.93;;;;;;;1.04;100.00;99784.86;1753124;81;21550;-73
2020/12/24 07:21:08;;;;;;;18.57;11.80;;;;;;;0.98;100.00;99775.00;1753088;81;21149;-73
2020/12/24 07:23:40;;;;;;;18.40;13.67;;;;;;;0.98;100.00;99781.62;1742864;82;21161;-72
2020/12/24 07:26:11;;;;;;;17.80;13.20;;;;;;;0.96;100.00;99778.33;1752395;81;21539;-73
2020/12/24 07:28:40;;;;;;;20.20;13.47;;;;;;;0.98;100.00;99786.09;1712766;83;21582;-73
2020/12/24 07:31:09;;;;;;;17.13;11.43;;;;;;;1.01;100.00;99783.09;1712859;83;21451;-75
2020/12/24 07:33:46;;;;;;;24.57;13.60;;;;;;;1.02;100.00;99774.11;1712715;83;21211;-72
2020/12/24 07:36:14;;;;;;;17.47;11.13;;;;;;;1.06;100.00;99781.50;1708255;82;21191;-74
2020/12/24 07:38:43;;;;;;;20.05;13.98;;;;;;;1.06;100.00;99778.85;1741367;81;22251;-73
2020/12/24 07:41:16;;;;;;;21.70;13.40;;;;;;;1.09;100.00;99787.77;1738940;82;21204;-71
2020/12/24 07:43:44;;;;;;;27.53;15.60;;;;;;;1.10;100.00;99782.80;1738192;82;21598;-72
2020/12/24 07:46:12;;;;;;;39.33;21.37;;;;;;;1.11;100.00;99796.83;1740166;82;22381;-72
2020/12/24 07:48:40;;;;;;;35.05;22.42;;;;;;;1.12;100.00;99789.20;1741419;82;21111;-72
2020/12/24 07:51:08;;;;;;;34.83;20.80;;;;;;;1.18;100.00;99786.64;1741279;82;21133;-73
2020/12/24 07:53:36;;;;;;;38.50;21.87;;;;;;;1.17;100.00;99790.30;1741408;82;21177;-70
2020/12/24 07:56:05;;;;;;;28.70;18.03;;;;;;;1.19;100.00;99781.67;1741422;82;23545;-71
2020/12/24 07:58:34;;;;;;;25.25;17.67;;;;;;;1.18;100.00;99780.52;1705296;84;21590;-71
2020/12/24 08:01:04;;;;;;;22.85;13.32;;;;;;;1.11;100.00;99782.27;1734760;82;21009;-72
2020/12/24 08:03:32;;;;;;;21.60;13.75;;;;;;;1.12;100.00;99783.41;1734311;82;21565;-70
2020/12/24 08:06:05;;;;;;;19.13;11.27;;;;;;;1.14;100.00;99786.71;1733149;82;21132;-71
2020/12/24 08:08:35;;;;;;;22.02;12.43;;;;;;;1.10;100.00;99790.74;1753882;81;21397;-73
2020/12/24 08:11:08;;;;;;;17.60;11.08;;;;;;;1.05;100.00;99778.56;1758102;81;21192;-73
2020/12/24 08:13:36;;;;;;;18.40;10.80;;;;;;;1.10;100.00;99775.35;1757426;81;21010;-71
2020/12/24 08:16:04;;;;;;;22.37;11.45;;;;;;;1.13;100.00;99786.38;1755254;81;21173;-73
2020/12/24 08:18:39;;;;;;;20.55;13.72;;;;;;;1.09;100.00;99779.00;1741868;81;21113;-73
2020/12/24 08:21:25;;;;;;;20.73;13.87;;;;;;;1.11;100.00;99790.20;1731483;82;21459;-71
2020/12/24 08:23:56;;;;;;;20.50;13.50;;;;;;;1.09;100.00;99786.44;1742737;82;21001;-71
2020/12/24 08:26:23;;;;;;;19.17;11.77;;;;;;;1.06;100.00;99780.67;1732612;82;21038;-71
2020/12/24 08:28:56;;;;;;;22.47;13.67;;;;;;;1.08;100.00;99776.03;1712405;83;21592;-70
2020/12/24 08:31:25;;;;;;;23.05;15.32;;;;;;;1.13;100.00;99767.84;1712594;83;21601;-71
2020/12/24 08:33:53;;;;;;;23.37;13.23;;;;;;;1.16;100.00;99765.31;1712224;83;21613;-71
2020/12/24 08:36:26;;;;;;;17.77;10.93;;;;;;;1.18;100.00;99764.13;1712009;83;21132;-72
2020/12/24 08:39:08;;;;;;;22.32;15.50;;;;;;;1.14;100.00;99768.17;1743053;82;21595;-72
2020/12/24 08:41:56;;;;;;;24.23;12.25;;;;;;;1.12;100.00;99767.52;1713346;83;21645;-71
2020/12/24 08:44:24;;;;;;;23.80;13.13;;;;;;;1.15;100.00;99762.38;1683693;85;21149;-71
2020/12/24 08:47:09;;;;;;;27.53;16.97;;;;;;;1.10;100.00;99764.26;1685269;85;20975;-72
2020/12/24 08:49:43;;;;;;;;;;;;;;;1.14;100.00;99766.02;1720488;82;21192;-71
2020/12/24 08:52:17;;;;;;;23.40;15.58;;;;;;;1.21;100.00;99763.75;1742568;82;20234;-73
2020/12/24 08:55:01;;;;;;;27.73;14.23;;;;;;;1.29;100.00;99763.65;1742413;82;21120;-73
2020/12/24 08:57:29;;;;;;;27.67;15.73;;;;;;;1.23;100.00;99768.37;1731380;82;21175;-73
2020/12/24 08:59:58;;;;;;;23.20;16.07;;;;;;;1.21;100.00;99754.97;1742477;81;22017;-72
2020/12/24 09:02:29;;;;;;;33.57;20.17;;;;;;;1.18;100.00;99752.71;1711744;83;21041;-72
2020/12/24 09:04:58;;;;;;;23.27;15.18;;;;;;;1.16;100.00;99752.89;1742843;82;21132;-71
2020/12/24 09:07:32;;;;;;;21.63;13.37;;;;;;;1.17;100.00;99743.94;1742882;82;21188;-73
2020/12/24 09:10:15;;;;;;;27.22;16.15;;;;;;;1.17;100.00;99725.91;1742784;82;21192;-72
2020/12/24 09:12:44;;;;;;;27.45;18.25;;;;;;;1.17;100.00;99727.23;1743038;82;21528;-71
2020/12/24 09:15:13;;;;;;;20.83;11.67;;;;;;;1.15;100.00;99727.94;1742828;82;21139;-72
2020/12/24 09:17:50;;;;;;;16.90;10.30;;;;;;;1.12;100.00;99730.94;1742368;82;21136;-73
2020/12/24 09:20:27;;;;;;;19.27;13.13;;;;;;;1.11;100.00;99726.65;1737340;82;21180;-70
2020/12/24 09:22:57;;;;;;;22.30;15.10;;;;;;;1.09;100.00;99725.53;1732702;82;21146;-71
2020/12/24 09:25:43;;;;;;;16.60;12.37;;;;;;;1.14;100.00;99727.11;1720259;83;21209;-72
2020/12/24 09:28:26;;;;;;;16.37;11.00;;;;;;;1.17;100.00;99731.20;1736204;82;21160;-73
2020/12/24 09:30:58;;;;;;;12.85;9.15;;;;;;;1.16;100.00;99724.25;1740855;82;21160;-72
2020/12/24 09:33:26;;;;;;;14.80;10.30;;;;;;;1.15;100.00;99720.78;1743628;82;21167;-71
2020/12/24 09:35:54;;;;;;;16.90;11.47;;;;;;;1.13;100.00;99712.22;1734104;82;21185;-70
2020/12/24 09:38:22;;;;;;;15.27;9.77;;;;;;;1.16;100.00;99705.72;1758071;81;21354;-72
2020/12/24 09:40:50;;;;;;;16.97;11.30;;;;;;;1.23;100.00;99717.21;1749040;81;21084;-78
2020/12/24 09:43:17;;;;;;;16.40;11.40;;;;;;;1.24;100.00;99721.00;1732857;82;21104;-71
2020/12/24 09:45:45;;;;;;;17.10;12.30;;;;;;;1.27;100.00;99714.49;1742041;81;20998;-70
2020/12/24 09:48:12;;;;;;;14.17;9.27;;;;;;;1.24;100.00;99718.36;1742230;82;21481;-71
2020/12/24 09:50:40;;;;;;;11.43;8.98;;;;;;;1.19;100.00;99719.92;1742346;82;21400;-72
2020/12/24 09:53:08;;;;;;;9.90;8.47;;;;;;;1.15;100.00;99702.78;1742281;82;21131;-72
2020/12/24 09:55:36;;;;;;;10.40;8.73;;;;;;;1.19;100.00;99701.38;1744596;81;21173;-70
2020/12/24 09:58:04;;;;;;;12.37;8.98;;;;;;;1.16;100.00;99705.22;1732838;82;21217;-71
2020/12/24 10:00:31;;;;;;;14.77;9.53;;;;;;;1.15;100.00;99694.83;1753368;81;21181;-71
2020/12/24 10:02:59;;;;;;;12.67;9.23;;;;;;;1.16;100.00;99687.17;1753973;81;21202;-72
2020/12/24 10:05:27;;;;;;;15.67;10.50;;;;;;;1.17;100.00;99688.32;1756333;81;22284;-72
2020/12/24 10:07:57;;;;;;;16.63;10.50;;;;;;;1.19;100.00;99683.66;1745431;81;21078;-70
2020/12/24 10:10:25;;;;;;;13.18;9.65;;;;;;;1.20;100.00;99673.36;1700300;84;21180;-70
2020/12/24 10:12:52;;;;;;;17.03;11.03;;;;;;;1.21;100.00;99674.19;1734128;81;21166;-71
2020/12/24 10:15:20;;;;;;;16.03;12.07;;;;;;;1.23;100.00;99671.67;1741753;81;22103;-73
2020/12/24 10:17:47;;;;;;;14.98;9.48;;;;;;;1.30;100.00;99667.24;1725618;83;21576;-71
2020/12/24 10:20:15;;;;;;;15.83;11.13;;;;;;;1.33;100.00;99663.41;1733294;82;21129;-70
2020/12/24 10:22:43;;;;;;;16.03;10.67;;;;;;;1.29;100.00;99656.36;1752892;81;21177;-71
2020/12/24 10:25:11;;;;;;;12.50;9.87;;;;;;;1.30;100.00;99659.30;1732928;82;21273;-73
2020/12/24 10:27:39;;;;;;;14.98;10.75;;;;;;;1.29;100.00;99641.78;1752978;81;21567;-71
2020/12/24 10:30:06;;;;;;;19.80;12.23;;;;;;;1.30;100.00;99645.23;1733412;82;21579;-73
2020/12/24 10:32:36;;;;;;;23.47;15.40;;;;;;;1.31;100.00;99639.75;1762820;80;21161;-78
2020/12/24 10:35:04;;;;;;;19.00;10.85;;;;;;;1.30;100.00;99640.75;1730793;81;21760;-73
2020/12/24 10:37:33;;;;;;;15.98;11.30;;;;;;;1.25;100.00;99628.58;1739370;81;21192;-72
2020/12/24 10:40:00;;;;;;;11.70;8.40;;;;;;;1.29;100.00;99630.36;1725713;83;21328;-76
2020/12/24 10:42:28;;;;;;;16.33;10.63;;;;;;;1.28;100.00;99622.92;1729983;82;21228;-72
2020/12/24 10:44:56;;;;;;;18.40;10.67;;;;;;;1.29;100.00;99633.02;1753045;81;21011;-70
2020/12/24 10:47:29;;;;;;;16.55;9.88;;;;;;;1.27;100.00;99621.27;1732948;82;21157;-74
2020/12/24 10:49:58;;;;;;;15.23;8.68;;;;;;;1.30;100.00;99610.78;1758140;81;21110;-70
2020/12/24 10:52:25;;;;;;;16.25;11.28;;;;;;;1.36;100.00;99612.67;1726546;83;21220;-68
2020/12/24 10:54:55;;;;;;;20.88;11.63;;;;;;;1.38;100.00;99605.37;1731683;82;21262;-68
2020/12/24 10:57:23;;;;;;;18.95;11.45;;;;;;;1.41;100.00;99602.82;1754235;81;21153;-75
2020/12/24 10:59:51;;;;;;;17.80;10.97;;;;;;;1.30;100.00;99606.31;1738435;82;22042;-72
2020/12/24 11:02:19;;;;;;;13.63;9.47;;;;;;;1.30;100.00;99600.19;1738219;82;21170;-74
2020/12/24 11:04:46;;;;;;;18.32;11.63;;;;;;;1.33;100.00;99595.03;1740109;82;21402;-70
2020/12/24 11:07:14;;;;;;;27.17;13.68;;;;;;;1.34;100.00;99592.70;1713071;82;21169;-72
2020/12/24 11:09:42;;;;;;;21.50;9.53;;;;;;;1.33;100.00;99590.55;1711353;83;21146;-71
2020/12/24 11:12:10;;;;;;;32.55;15.08;;;;;;;1.27;100.00;99588.16;1685247;83;21709;-70
2020/12/24 11:14:37;;;;;;;21.37;13.50;;;;;;;1.23;100.00;99588.23;1740575;82;21145;-71
2020/12/24 11:17:06;;;;;;;20.50;12.60;;;;;;;1.16;100.00;99579.91;1752838;81;23234;-72
2020/12/24 11:19:34;;;;;;;18.07;11.50;;;;;;;1.15;100.00;99577.77;1752690;81;21188;-70
2020/12/24 11:22:01;;;;;;;19.50;13.93;;;;;;;1.17;100.00;99575.75;1752626;81;21194;-71
2020/12/24 11:24:29;;;;;;;21.43;13.60;;;;;;;1.19;100.00;99578.22;1735306;81;21146;-71
2020/12/24 11:26:57;;;;;;;18.30;11.87;;;;;;;1.14;100.00;99570.85;1712631;83;21143;-71
2020/12/24 11:29:24;;;;;;;20.10;13.55;;;;;;;1.11;100.00;99570.39;1712756;83;21221;-71
2020/12/24 11:31:56;;;;;;;21.73;14.47;;;;;;;1.05;100.00;99571.19;1704818;82;21650;-70